sensor_id;sensor_type;location;lat;lon;timestamp;temperature;humidity
57664;DHT22;43493;53.098;6.064;2023-06-10T00:02:07;17.60;99.90
57664;DHT22;43493;53.098;6.064;2023-06-10T00:04:33;17.60;99.90
57664;DHT22;43493;53.098;6.064;2023-06-10T00:07:02;17.60;99.90
57664;DHT22;43493;53.098;6.064;2023-06-10T00:09:29;17.60;99.90
57664;DHT22;43493;53.098;6.064;2023-06-10T00:11:55;17.60;99.90
57664;DHT22;43493;53.098;6.064;2023-06-10T00:14:20;17.60;99.90
57664;DHT22;43493;53.098;6.064;2023-06-10T00:16:46;17.60;99.90
57664;DHT22;43493;53.098;6.064;2023-06-10T00:19:12;17.50;99.90
57664;DHT22;43493;53.098;6.064;2023-06-10T00:21:41;17.50;99.90
57664;DHT22;43493;53.098;6.064;2023-06-10T00:24:10;17.50;99.90
57664;DHT22;43493;53.098;6.064;2023-06-10T00:26:38;17.40;99.90
57664;DHT22;43493;53.098;6.064;2023-06-10T00:29:04;17.40;99.90
57664;DHT22;43493;53.098;6.064;2023-06-10T00:31:29;17.40;99.90
57664;DHT22;43493;53.098;6.064;2023-06-10T00:33:55;17.40;99.90
57664;DHT22;43493;53.098;6.064;2023-06-10T00:36:21;17.40;99.90
57664;DHT22;43493;53.098;6.064;2023-06-10T00:38:47;17.30;99.90
57664;DHT22;43493;53.098;6.064;2023-06-10T00:41:13;17.30;99.90
57664;DHT22;43493;53.098;6.064;2023-06-10T00:43:39;17.30;99.90
57664;DHT22;43493;53.098;6.064;2023-06-10T00:46:05;17.30;99.90
57664;DHT22;43493;53.098;6.064;2023-06-10T00:48:31;17.20;99.90
57664;DHT22;43493;53.098;6.064;2023-06-10T00:50:58;17.20;99.90
57664;DHT22;43493;53.098;6.064;2023-06-10T00:53:25;17.20;99.90
57664;DHT22;43493;53.098;6.064;2023-06-10T00:55:51;17.20;99.90
57664;DHT22;43493;53.098;6.064;2023-06-10T00:58:18;17.20;99.90
57664;DHT22;43493;53.098;6.064;2023-06-10T01:00:44;17.20;99.90
57664;DHT22;43493;53.098;6.064;2023-06-10T01:03:10;17.10;99.90
57664;DHT22;43493;53.098;6.064;2023-06-10T01:05:40;17.10;99.90
57664;DHT22;43493;53.098;6.064;2023-06-10T01:10:53;17.10;99.90
57664;DHT22;43493;53.098;6.064;2023-06-10T01:13:23;17.00;99.90
57664;DHT22;43493;53.098;6.064;2023-06-10T01:15:54;17.00;99.90
57664;DHT22;43493;53.098;6.064;2023-06-10T01:18:20;17.00;99.90
57664;DHT22;43493;53.098;6.064;2023-06-10T01:20:47;17.00;99.90
57664;DHT22;43493;53.098;6.064;2023-06-10T01:23:15;17.00;99.90
57664;DHT22;43493;53.098;6.064;2023-06-10T01:25:49;16.90;99.90
57664;DHT22;43493;53.098;6.064;2023-06-10T01:28:38;16.90;99.90
57664;DHT22;43493;53.098;6.064;2023-06-10T01:31:34;16.90;99.90
57664;DHT22;43493;53.098;6.064;2023-06-10T01:34:05;16.80;99.90
57664;DHT22;43493;53.098;6.064;2023-06-10T01:36:35;16.80;99.90
57664;DHT22;43493;53.098;6.064;2023-06-10T01:39:02;16.80;99.90
57664;DHT22;43493;53.098;6.064;2023-06-10T01:41:30;16.70;99.90
57664;DHT22;43493;53.098;6.064;2023-06-10T01:43:56;16.70;99.90
57664;DHT22;43493;53.098;6.064;2023-06-10T01:46:22;16.70;99.90
57664;DHT22;43493;53.098;6.064;2023-06-10T01:48:48;16.60;99.90
57664;DHT22;43493;53.098;6.064;2023-06-10T01:51:14;16.60;99.90
57664;DHT22;43493;53.098;6.064;2023-06-10T01:53:39;16.60;99.90
57664;DHT22;43493;53.098;6.064;2023-06-10T01:56:05;16.60;99.90
57664;DHT22;43493;53.098;6.064;2023-06-10T01:58:31;16.50;99.90
57664;DHT22;43493;53.098;6.064;2023-06-10T02:00:56;16.50;99.90
57664;DHT22;43493;53.098;6.064;2023-06-10T02:03:22;16.50;99.90
57664;DHT22;43493;53.098;6.064;2023-06-10T02:05:49;16.40;99.90
57664;DHT22;43493;53.098;6.064;2023-06-10T02:08:15;16.40;99.90
57664;DHT22;43493;53.098;6.064;2023-06-10T02:10:41;16.40;99.90
57664;DHT22;43493;53.098;6.064;2023-06-10T02:13:06;16.40;99.90
57664;DHT22;43493;53.098;6.064;2023-06-10T02:15:32;16.40;99.90
57664;DHT22;43493;53.098;6.064;2023-06-10T02:17:59;16.30;99.90
57664;DHT22;43493;53.098;6.064;2023-06-10T02:20:25;16.30;99.90
57664;DHT22;43493;53.098;6.064;2023-06-10T02:22:50;16.20;99.90
57664;DHT22;43493;53.098;6.064;2023-06-10T02:25:16;16.20;99.90
57664;DHT22;43493;53.098;6.064;2023-06-10T02:27:42;16.20;99.90
57664;DHT22;43493;53.098;6.064;2023-06-10T02:30:08;16.20;99.90
57664;DHT22;43493;53.098;6.064;2023-06-10T02:32:35;16.10;99.90
57664;DHT22;43493;53.098;6.064;2023-06-10T02:35:01;16.10;99.90
57664;DHT22;43493;53.098;6.064;2023-06-10T02:37:27;16.00;99.90
57664;DHT22;43493;53.098;6.064;2023-06-10T02:39:53;16.00;99.90
57664;DHT22;43493;53.098;6.064;2023-06-10T02:42:19;16.00;99.90
57664;DHT22;43493;53.098;6.064;2023-06-10T02:44:45;16.00;99.90
57664;DHT22;43493;53.098;6.064;2023-06-10T02:47:11;16.00;99.90
57664;DHT22;43493;53.098;6.064;2023-06-10T02:49:37;15.90;99.90
57664;DHT22;43493;53.098;6.064;2023-06-10T02:52:02;15.90;99.90
57664;DHT22;43493;53.098;6.064;2023-06-10T02:54:28;15.90;99.90
57664;DHT22;43493;53.098;6.064;2023-06-10T02:56:54;15.90;99.90
57664;DHT22;43493;53.098;6.064;2023-06-10T02:59:21;15.80;99.90
57664;DHT22;43493;53.098;6.064;2023-06-10T03:01:47;15.80;99.90
57664;DHT22;43493;53.098;6.064;2023-06-10T03:04:13;15.80;99.90
57664;DHT22;43493;53.098;6.064;2023-06-10T03:06:41;15.70;99.90
57664;DHT22;43493;53.098;6.064;2023-06-10T03:09:07;15.70;99.90
57664;DHT22;43493;53.098;6.064;2023-06-10T03:11:33;15.70;99.90
57664;DHT22;43493;53.098;6.064;2023-06-10T03:13:59;15.70;99.90
57664;DHT22;43493;53.098;6.064;2023-06-10T03:16:25;15.60;99.90
57664;DHT22;43493;53.098;6.064;2023-06-10T03:18:51;15.60;99.90
57664;DHT22;43493;53.098;6.064;2023-06-10T03:21:17;15.60;99.90
57664;DHT22;43493;53.098;6.064;2023-06-10T03:23:42;15.50;99.90
57664;DHT22;43493;53.098;6.064;2023-06-10T03:26:08;15.50;99.90
57664;DHT22;43493;53.098;6.064;2023-06-10T03:28:35;15.50;99.90
57664;DHT22;43493;53.098;6.064;2023-06-10T03:31:01;15.50;99.90
57664;DHT22;43493;53.098;6.064;2023-06-10T03:33:27;15.50;99.90
57664;DHT22;43493;53.098;6.064;2023-06-10T03:35:53;15.40;99.90
57664;DHT22;43493;53.098;6.064;2023-06-10T03:38:19;15.40;99.90
57664;DHT22;43493;53.098;6.064;2023-06-10T03:40:44;15.40;99.90
57664;DHT22;43493;53.098;6.064;2023-06-10T03:43:10;15.40;99.90
57664;DHT22;43493;53.098;6.064;2023-06-10T03:45:36;15.40;99.90
57664;DHT22;43493;53.098;6.064;2023-06-10T03:48:02;15.40;99.90
57664;DHT22;43493;53.098;6.064;2023-06-10T03:50:29;15.40;99.90
57664;DHT22;43493;53.098;6.064;2023-06-10T03:52:55;15.30;99.90
57664;DHT22;43493;53.098;6.064;2023-06-10T03:55:20;15.30;99.90
57664;DHT22;43493;53.098;6.064;2023-06-10T03:57:48;15.30;99.90
57664;DHT22;43493;53.098;6.064;2023-06-10T04:00:15;15.30;99.90
57664;DHT22;43493;53.098;6.064;2023-06-10T04:02:41;15.30;99.90
57664;DHT22;43493;53.098;6.064;2023-06-10T04:05:17;15.30;99.90
57664;DHT22;43493;53.098;6.064;2023-06-10T04:07:44;15.30;99.90
57664;DHT22;43493;53.098;6.064;2023-06-10T04:10:13;15.30;99.90
57664;DHT22;43493;53.098;6.064;2023-06-10T04:12:39;15.30;99.90
57664;DHT22;43493;53.098;6.064;2023-06-10T04:15:06;15.30;99.90
57664;DHT22;43493;53.098;6.064;2023-06-10T04:17:32;15.30;99.90
57664;DHT22;43493;53.098;6.064;2023-06-10T04:19:58;15.40;99.90
57664;DHT22;43493;53.098;6.064;2023-06-10T04:22:24;15.40;99.90
57664;DHT22;43493;53.098;6.064;2023-06-10T04:24:50;15.40;99.90
57664;DHT22;43493;53.098;6.064;2023-06-10T04:27:15;15.50;99.90
57664;DHT22;43493;53.098;6.064;2023-06-10T04:29:41;15.50;99.90
57664;DHT22;43493;53.098;6.064;2023-06-10T04:32:07;15.40;99.90
57664;DHT22;43493;53.098;6.064;2023-06-10T04:34:37;15.40;99.90
57664;DHT22;43493;53.098;6.064;2023-06-10T04:37:05;15.50;99.90
57664;DHT22;43493;53.098;6.064;2023-06-10T04:39:32;15.50;99.90
57664;DHT22;43493;53.098;6.064;2023-06-10T04:41:57;15.60;99.90
57664;DHT22;43493;53.098;6.064;2023-06-10T04:44:23;15.70;99.90
57664;DHT22;43493;53.098;6.064;2023-06-10T04:46:49;15.70;99.90
57664;DHT22;43493;53.098;6.064;2023-06-10T04:49:14;15.80;99.90
57664;DHT22;43493;53.098;6.064;2023-06-10T04:51:40;15.90;99.90
57664;DHT22;43493;53.098;6.064;2023-06-10T04:54:06;16.00;99.90
57664;DHT22;43493;53.098;6.064;2023-06-10T04:56:32;16.00;99.90
57664;DHT22;43493;53.098;6.064;2023-06-10T04:58:58;16.10;99.90
57664;DHT22;43493;53.098;6.064;2023-06-10T05:01:24;16.10;99.90
57664;DHT22;43493;53.098;6.064;2023-06-10T05:03:50;16.20;99.90
57664;DHT22;43493;53.098;6.064;2023-06-10T05:06:16;16.30;99.90
57664;DHT22;43493;53.098;6.064;2023-06-10T05:08:42;16.40;99.90
57664;DHT22;43493;53.098;6.064;2023-06-10T05:11:07;16.50;99.90
57664;DHT22;43493;53.098;6.064;2023-06-10T05:13:34;16.60;99.90
57664;DHT22;43493;53.098;6.064;2023-06-10T05:15:59;16.60;99.90
57664;DHT22;43493;53.098;6.064;2023-06-10T05:18:25;16.70;99.90
57664;DHT22;43493;53.098;6.064;2023-06-10T05:20:52;16.70;99.90
57664;DHT22;43493;53.098;6.064;2023-06-10T05:23:19;16.80;99.90
57664;DHT22;43493;53.098;6.064;2023-06-10T05:25:45;17.00;99.90
57664;DHT22;43493;53.098;6.064;2023-06-10T05:28:11;17.00;99.90
57664;DHT22;43493;53.098;6.064;2023-06-10T05:30:37;17.10;99.90
57664;DHT22;43493;53.098;6.064;2023-06-10T05:33:04;17.30;99.90
57664;DHT22;43493;53.098;6.064;2023-06-10T05:35:30;17.40;99.90
57664;DHT22;43493;53.098;6.064;2023-06-10T05:37:55;17.50;99.90
57664;DHT22;43493;53.098;6.064;2023-06-10T05:40:21;17.60;99.90
57664;DHT22;43493;53.098;6.064;2023-06-10T05:42:47;17.70;99.90
57664;DHT22;43493;53.098;6.064;2023-06-10T05:45:13;18.00;99.90
57664;DHT22;43493;53.098;6.064;2023-06-10T05:47:39;18.20;99.90
57664;DHT22;43493;53.098;6.064;2023-06-10T05:50:06;19.20;99.90
57664;DHT22;43493;53.098;6.064;2023-06-10T05:52:36;20.70;99.90
57664;DHT22;43493;53.098;6.064;2023-06-10T05:55:05;22.20;99.90
57664;DHT22;43493;53.098;6.064;2023-06-10T05:57:30;23.20;99.90
57664;DHT22;43493;53.098;6.064;2023-06-10T05:59:56;23.70;99.90
57664;DHT22;43493;53.098;6.064;2023-06-10T06:02:22;24.40;99.90
57664;DHT22;43493;53.098;6.064;2023-06-10T06:04:48;25.10;97.90
57664;DHT22;43493;53.098;6.064;2023-06-10T06:07:14;25.90;91.40
57664;DHT22;43493;53.098;6.064;2023-06-10T06:09:40;25.90;84.10
57664;DHT22;43493;53.098;6.064;2023-06-10T06:12:06;26.10;79.40
57664;DHT22;43493;53.098;6.064;2023-06-10T06:14:33;25.90;74.80
57664;DHT22;43493;53.098;6.064;2023-06-10T06:17:02;26.20;73.80
57664;DHT22;43493;53.098;6.064;2023-06-10T06:19:27;26.40;71.70
57664;DHT22;43493;53.098;6.064;2023-06-10T06:21:53;26.40;69.20
57664;DHT22;43493;53.098;6.064;2023-06-10T06:24:19;26.60;66.60
57664;DHT22;43493;53.098;6.064;2023-06-10T06:26:45;26.80;63.30
57664;DHT22;43493;53.098;6.064;2023-06-10T06:29:10;27.70;64.30
57664;DHT22;43493;53.098;6.064;2023-06-10T06:31:36;28.60;61.20
57664;DHT22;43493;53.098;6.064;2023-06-10T06:34:02;29.20;58.10
57664;DHT22;43493;53.098;6.064;2023-06-10T06:36:27;29.20;56.00
57664;DHT22;43493;53.098;6.064;2023-06-10T06:38:53;29.10;53.70
57664;DHT22;43493;53.098;6.064;2023-06-10T06:41:19;28.80;53.60
57664;DHT22;43493;53.098;6.064;2023-06-10T06:43:45;28.80;54.30
57664;DHT22;43493;53.098;6.064;2023-06-10T06:46:10;28.80;53.60
57664;DHT22;43493;53.098;6.064;2023-06-10T06:48:36;29.40;53.50
57664;DHT22;43493;53.098;6.064;2023-06-10T06:51:02;29.90;52.70
57664;DHT22;43493;53.098;6.064;2023-06-10T06:53:28;30.50;51.50
57664;DHT22;43493;53.098;6.064;2023-06-10T06:55:53;30.80;49.00
57664;DHT22;43493;53.098;6.064;2023-06-10T06:58:19;30.60;48.80
57664;DHT22;43493;53.098;6.064;2023-06-10T07:00:45;30.80;48.90
57664;DHT22;43493;53.098;6.064;2023-06-10T07:03:10;30.70;48.30
57664;DHT22;43493;53.098;6.064;2023-06-10T07:05:37;31.20;48.20
57664;DHT22;43493;53.098;6.064;2023-06-10T07:08:03;31.00;47.00
57664;DHT22;43493;53.098;6.064;2023-06-10T07:10:29;30.70;47.50
57664;DHT22;43493;53.098;6.064;2023-06-10T07:12:54;30.90;47.60
57664;DHT22;43493;53.098;6.064;2023-06-10T07:15:20;31.20;47.20
57664;DHT22;43493;53.098;6.064;2023-06-10T07:17:46;31.30;46.80
57664;DHT22;43493;53.098;6.064;2023-06-10T07:20:12;31.60;46.20
57664;DHT22;43493;53.098;6.064;2023-06-10T07:22:38;31.40;45.70
57664;DHT22;43493;53.098;6.064;2023-06-10T07:25:07;31.30;46.40
57664;DHT22;43493;53.098;6.064;2023-06-10T07:27:33;31.20;46.80
57664;DHT22;43493;53.098;6.064;2023-06-10T07:29:59;31.60;45.90
57664;DHT22;43493;53.098;6.064;2023-06-10T07:32:26;32.00;45.60
57664;DHT22;43493;53.098;6.064;2023-06-10T07:34:52;32.30;44.90
57664;DHT22;43493;53.098;6.064;2023-06-10T07:37:18;32.00;44.60
57664;DHT22;43493;53.098;6.064;2023-06-10T07:39:45;32.30;44.90
57664;DHT22;43493;53.098;6.064;2023-06-10T07:42:11;31.90;44.10
57664;DHT22;43493;53.098;6.064;2023-06-10T07:44:36;31.80;44.20
57664;DHT22;43493;53.098;6.064;2023-06-10T07:47:02;31.70;45.00
57664;DHT22;43493;53.098;6.064;2023-06-10T07:49:28;31.80;44.70
57664;DHT22;43493;53.098;6.064;2023-06-10T07:51:54;32.20;44.50
57664;DHT22;43493;53.098;6.064;2023-06-10T07:54:21;32.20;44.00
57664;DHT22;43493;53.098;6.064;2023-06-10T07:56:47;32.40;43.00
57664;DHT22;43493;53.098;6.064;2023-06-10T07:59:13;32.00;43.30
57664;DHT22;43493;53.098;6.064;2023-06-10T08:01:39;31.90;43.60
57664;DHT22;43493;53.098;6.064;2023-06-10T08:04:06;31.90;44.40
57664;DHT22;43493;53.098;6.064;2023-06-10T08:06:32;32.50;43.20
57664;DHT22;43493;53.098;6.064;2023-06-10T08:08:58;32.60;42.50
57664;DHT22;43493;53.098;6.064;2023-06-10T08:11:23;32.80;42.10
57664;DHT22;43493;53.098;6.064;2023-06-10T08:13:49;32.90;41.80
57664;DHT22;43493;53.098;6.064;2023-06-10T08:16:16;32.90;42.10
57664;DHT22;43493;53.098;6.064;2023-06-10T08:18:42;32.70;42.10
57664;DHT22;43493;53.098;6.064;2023-06-10T08:21:08;32.60;40.70
57664;DHT22;43493;53.098;6.064;2023-06-10T08:23:33;32.50;40.50
57664;DHT22;43493;53.098;6.064;2023-06-10T08:25:59;32.20;40.70
57664;DHT22;43493;53.098;6.064;2023-06-10T08:28:25;32.30;41.20
57664;DHT22;43493;53.098;6.064;2023-06-10T08:30:50;32.40;41.10
57664;DHT22;43493;53.098;6.064;2023-06-10T08:33:16;32.60;41.30
57664;DHT22;43493;53.098;6.064;2023-06-10T08:35:42;32.60;40.90
57664;DHT22;43493;53.098;6.064;2023-06-10T08:38:08;32.50;41.20
57664;DHT22;43493;53.098;6.064;2023-06-10T08:40:34;32.20;40.70
57664;DHT22;43493;53.098;6.064;2023-06-10T08:43:07;32.10;41.10
57664;DHT22;43493;53.098;6.064;2023-06-10T08:45:35;31.90;41.10
57664;DHT22;43493;53.098;6.064;2023-06-10T08:48:05;31.50;40.90
57664;DHT22;43493;53.098;6.064;2023-06-10T08:50:35;31.00;40.00
57664;DHT22;43493;53.098;6.064;2023-06-10T08:53:06;30.10;41.00
57664;DHT22;43493;53.098;6.064;2023-06-10T08:55:35;29.40;41.10
57664;DHT22;43493;53.098;6.064;2023-06-10T08:58:02;28.70;42.20
57664;DHT22;43493;53.098;6.064;2023-06-10T09:00:28;27.80;42.80
57664;DHT22;43493;53.098;6.064;2023-06-10T09:02:57;27.60;43.40
57664;DHT22;43493;53.098;6.064;2023-06-10T09:05:23;27.40;43.40
57664;DHT22;43493;53.098;6.064;2023-06-10T09:07:51;26.90;44.20
57664;DHT22;43493;53.098;6.064;2023-06-10T09:10:17;26.50;45.50
57664;DHT22;43493;53.098;6.064;2023-06-10T09:12:43;26.20;45.80
57664;DHT22;43493;53.098;6.064;2023-06-10T09:15:09;26.10;47.00
57664;DHT22;43493;53.098;6.064;2023-06-10T09:17:37;26.00;46.30
57664;DHT22;43493;53.098;6.064;2023-06-10T09:20:03;26.10;46.50
57664;DHT22;43493;53.098;6.064;2023-06-10T09:22:29;26.10;46.30
57664;DHT22;43493;53.098;6.064;2023-06-10T09:25:06;25.90;46.40
57664;DHT22;43493;53.098;6.064;2023-06-10T09:27:45;25.70;46.10
57664;DHT22;43493;53.098;6.064;2023-06-10T09:32:58;25.50;47.60
57664;DHT22;43493;53.098;6.064;2023-06-10T09:35:28;25.50;47.80
57664;DHT22;43493;53.098;6.064;2023-06-10T09:37:59;25.60;47.90
57664;DHT22;43493;53.098;6.064;2023-06-10T09:40:26;25.60;48.30
57664;DHT22;43493;53.098;6.064;2023-06-10T09:42:54;25.70;48.30
57664;DHT22;43493;53.098;6.064;2023-06-10T09:45:21;25.70;48.40
57664;DHT22;43493;53.098;6.064;2023-06-10T09:47:51;25.50;46.70
57664;DHT22;43493;53.098;6.064;2023-06-10T09:50:17;25.30;45.90
57664;DHT22;43493;53.098;6.064;2023-06-10T09:52:43;25.20;46.20
57664;DHT22;43493;53.098;6.064;2023-06-10T09:55:11;25.20;46.00
57664;DHT22;43493;53.098;6.064;2023-06-10T09:57:36;25.20;46.30
57664;DHT22;43493;53.098;6.064;2023-06-10T10:00:08;25.10;45.60
57664;DHT22;43493;53.098;6.064;2023-06-10T10:02:47;25.10;45.70
57664;DHT22;43493;53.098;6.064;2023-06-10T10:05:15;25.10;46.50
57664;DHT22;43493;53.098;6.064;2023-06-10T10:07:42;25.10;44.70
57664;DHT22;43493;53.098;6.064;2023-06-10T10:10:08;25.10;45.20
57664;DHT22;43493;53.098;6.064;2023-06-10T10:12:36;25.20;46.00
57664;DHT22;43493;53.098;6.064;2023-06-10T10:15:03;25.30;45.60
57664;DHT22;43493;53.098;6.064;2023-06-10T10:17:32;25.30;44.10
57664;DHT22;43493;53.098;6.064;2023-06-10T10:20:03;25.30;44.10
57664;DHT22;43493;53.098;6.064;2023-06-10T10:22:34;25.30;45.20
57664;DHT22;43493;53.098;6.064;2023-06-10T10:25:04;25.40;46.30
57664;DHT22;43493;53.098;6.064;2023-06-10T10:27:36;25.40;47.40
57664;DHT22;43493;53.098;6.064;2023-06-10T10:30:05;25.40;47.70
57664;DHT22;43493;53.098;6.064;2023-06-10T10:33:27;25.20;47.20
57664;DHT22;43493;53.098;6.064;2023-06-10T10:35:45;25.30;46.30
57664;DHT22;43493;53.098;6.064;2023-06-10T10:38:11;25.30;45.30
57664;DHT22;43493;53.098;6.064;2023-06-10T10:40:38;25.30;44.60
57664;DHT22;43493;53.098;6.064;2023-06-10T10:43:05;25.20;44.10
57664;DHT22;43493;53.098;6.064;2023-06-10T10:45:33;25.30;43.80
57664;DHT22;43493;53.098;6.064;2023-06-10T10:48:08;25.30;43.60
57664;DHT22;43493;53.098;6.064;2023-06-10T10:50:37;25.30;44.20
57664;DHT22;43493;53.098;6.064;2023-06-10T10:53:04;25.10;44.70
57664;DHT22;43493;53.098;6.064;2023-06-10T10:55:31;25.20;45.80
57664;DHT22;43493;53.098;6.064;2023-06-10T10:58:06;25.20;47.40
57664;DHT22;43493;53.098;6.064;2023-06-10T11:00:43;25.20;48.00
57664;DHT22;43493;53.098;6.064;2023-06-10T11:03:15;25.20;47.70
57664;DHT22;43493;53.098;6.064;2023-06-10T11:05:47;25.20;47.20
57664;DHT22;43493;53.098;6.064;2023-06-10T11:09:01;25.20;47.20
57664;DHT22;43493;53.098;6.064;2023-06-10T11:11:21;25.20;48.10
57664;DHT22;43493;53.098;6.064;2023-06-10T11:14:06;25.20;49.20
57664;DHT22;43493;53.098;6.064;2023-06-10T11:16:39;25.20;48.20
57664;DHT22;43493;53.098;6.064;2023-06-10T11:19:05;25.20;47.10
57664;DHT22;43493;53.098;6.064;2023-06-10T11:21:31;25.30;47.40
57664;DHT22;43493;53.098;6.064;2023-06-10T11:24:00;25.30;48.10
57664;DHT22;43493;53.098;6.064;2023-06-10T11:26:43;25.40;48.90
57664;DHT22;43493;53.098;6.064;2023-06-10T11:29:09;25.40;49.20
57664;DHT22;43493;53.098;6.064;2023-06-10T11:31:40;25.50;48.80
57664;DHT22;43493;53.098;6.064;2023-06-10T11:34:07;25.40;48.60
57664;DHT22;43493;53.098;6.064;2023-06-10T11:36:40;25.40;48.50
57664;DHT22;43493;53.098;6.064;2023-06-10T11:39:06;25.40;48.10
57664;DHT22;43493;53.098;6.064;2023-06-10T11:41:33;25.30;47.90
57664;DHT22;43493;53.098;6.064;2023-06-10T11:44:07;25.30;48.30
57664;DHT22;43493;53.098;6.064;2023-06-10T11:46:33;25.30;48.50
57664;DHT22;43493;53.098;6.064;2023-06-10T11:49:00;25.30;48.50
57664;DHT22;43493;53.098;6.064;2023-06-10T11:51:28;25.30;46.70
57664;DHT22;43493;53.098;6.064;2023-06-10T11:53:54;25.30;46.40
57664;DHT22;43493;53.098;6.064;2023-06-10T11:56:28;25.30;45.40
57664;DHT22;43493;53.098;6.064;2023-06-10T11:58:57;25.30;44.00
57664;DHT22;43493;53.098;6.064;2023-06-10T12:01:25;25.30;45.20
57664;DHT22;43493;53.098;6.064;2023-06-10T12:06:24;25.40;47.50
57664;DHT22;43493;53.098;6.064;2023-06-10T12:08:49;25.50;47.00
57664;DHT22;43493;53.098;6.064;2023-06-10T12:11:15;25.60;46.10
57664;DHT22;43493;53.098;6.064;2023-06-10T12:13:48;25.60;46.90
57664;DHT22;43493;53.098;6.064;2023-06-10T12:16:15;25.60;47.50
57664;DHT22;43493;53.098;6.064;2023-06-10T12:18:43;25.60;47.60
57664;DHT22;43493;53.098;6.064;2023-06-10T12:21:23;25.50;47.30
57664;DHT22;43493;53.098;6.064;2023-06-10T12:24:01;25.50;46.90
57664;DHT22;43493;53.098;6.064;2023-06-10T12:26:53;25.50;46.90
57664;DHT22;43493;53.098;6.064;2023-06-10T12:29:24;25.50;46.00
57664;DHT22;43493;53.098;6.064;2023-06-10T12:32:03;25.50;46.60
57664;DHT22;43493;53.098;6.064;2023-06-10T12:34:38;25.50;46.40
57664;DHT22;43493;53.098;6.064;2023-06-10T12:37:09;25.60;46.80
57664;DHT22;43493;53.098;6.064;2023-06-10T12:39:39;25.50;46.10
57664;DHT22;43493;53.098;6.064;2023-06-10T12:42:05;25.50;46.50
57664;DHT22;43493;53.098;6.064;2023-06-10T12:44:35;25.60;47.10
57664;DHT22;43493;53.098;6.064;2023-06-10T12:47:12;25.60;46.90
57664;DHT22;43493;53.098;6.064;2023-06-10T12:49:38;25.70;47.20
57664;DHT22;43493;53.098;6.064;2023-06-10T12:52:05;25.70;47.10
57664;DHT22;43493;53.098;6.064;2023-06-10T12:54:31;25.70;47.20
57664;DHT22;43493;53.098;6.064;2023-06-10T12:56:56;25.70;47.30
57664;DHT22;43493;53.098;6.064;2023-06-10T12:59:22;25.70;47.10
57664;DHT22;43493;53.098;6.064;2023-06-10T13:01:53;25.70;46.90
57664;DHT22;43493;53.098;6.064;2023-06-10T13:04:20;25.70;47.20
57664;DHT22;43493;53.098;6.064;2023-06-10T13:06:47;25.70;46.90
57664;DHT22;43493;53.098;6.064;2023-06-10T13:09:14;25.70;46.90
57664;DHT22;43493;53.098;6.064;2023-06-10T13:11:41;25.70;46.60
57664;DHT22;43493;53.098;6.064;2023-06-10T13:14:08;25.70;46.50
57664;DHT22;43493;53.098;6.064;2023-06-10T13:16:34;25.70;46.70
57664;DHT22;43493;53.098;6.064;2023-06-10T13:19:00;25.70;46.30
57664;DHT22;43493;53.098;6.064;2023-06-10T13:21:28;25.80;46.00
57664;DHT22;43493;53.098;6.064;2023-06-10T13:23:53;25.80;45.70
57664;DHT22;43493;53.098;6.064;2023-06-10T13:26:19;25.70;46.30
57664;DHT22;43493;53.098;6.064;2023-06-10T13:28:46;25.70;46.30
57664;DHT22;43493;53.098;6.064;2023-06-10T13:31:12;25.80;46.40
57664;DHT22;43493;53.098;6.064;2023-06-10T13:33:38;25.80;46.70
57664;DHT22;43493;53.098;6.064;2023-06-10T13:36:04;25.80;46.20
57664;DHT22;43493;53.098;6.064;2023-06-10T13:38:30;25.80;46.50
57664;DHT22;43493;53.098;6.064;2023-06-10T13:40:55;25.90;46.70
57664;DHT22;43493;53.098;6.064;2023-06-10T13:43:21;25.90;47.20
57664;DHT22;43493;53.098;6.064;2023-06-10T13:45:47;25.90;47.70
57664;DHT22;43493;53.098;6.064;2023-06-10T13:48:12;26.00;48.20
57664;DHT22;43493;53.098;6.064;2023-06-10T13:50:38;25.90;49.20
57664;DHT22;43493;53.098;6.064;2023-06-10T13:53:04;25.90;50.20
57664;DHT22;43493;53.098;6.064;2023-06-10T13:55:30;25.80;51.30
57664;DHT22;43493;53.098;6.064;2023-06-10T13:57:55;25.80;54.40
57664;DHT22;43493;53.098;6.064;2023-06-10T14:00:21;25.80;58.40
57664;DHT22;43493;53.098;6.064;2023-06-10T14:02:47;25.80;64.60
57664;DHT22;43493;53.098;6.064;2023-06-10T14:05:12;25.80;66.60
57664;DHT22;43493;53.098;6.064;2023-06-10T14:07:38;25.80;68.60
57664;DHT22;43493;53.098;6.064;2023-06-10T14:10:06;25.70;73.50
57664;DHT22;43493;53.098;6.064;2023-06-10T14:12:34;25.70;77.60
57664;DHT22;43493;53.098;6.064;2023-06-10T14:15:00;25.70;79.70
57664;DHT22;43493;53.098;6.064;2023-06-10T14:17:26;25.70;79.70
57664;DHT22;43493;53.098;6.064;2023-06-10T14:19:52;25.70;80.90
57664;DHT22;43493;53.098;6.064;2023-06-10T14:22:17;25.70;79.80
57664;DHT22;43493;53.098;6.064;2023-06-10T14:24:43;25.70;83.20
57664;DHT22;43493;53.098;6.064;2023-06-10T14:27:09;25.70;85.10
57664;DHT22;43493;53.098;6.064;2023-06-10T14:29:34;25.60;88.30
57664;DHT22;43493;53.098;6.064;2023-06-10T14:32:01;25.60;85.40
57664;DHT22;43493;53.098;6.064;2023-06-10T14:34:27;25.70;84.40
57664;DHT22;43493;53.098;6.064;2023-06-10T14:36:59;25.70;85.10
57664;DHT22;43493;53.098;6.064;2023-06-10T14:39:25;25.70;88.00
57664;DHT22;43493;53.098;6.064;2023-06-10T14:41:51;25.70;90.10
57664;DHT22;43493;53.098;6.064;2023-06-10T14:44:18;25.70;90.90
57664;DHT22;43493;53.098;6.064;2023-06-10T14:46:44;25.70;90.90
57664;DHT22;43493;53.098;6.064;2023-06-10T14:49:10;25.70;88.00
57664;DHT22;43493;53.098;6.064;2023-06-10T14:51:35;25.80;83.20
57664;DHT22;43493;53.098;6.064;2023-06-10T14:54:01;25.80;80.20
57664;DHT22;43493;53.098;6.064;2023-06-10T14:56:27;25.90;77.40
57664;DHT22;43493;53.098;6.064;2023-06-10T14:58:52;25.90;78.20
57664;DHT22;43493;53.098;6.064;2023-06-10T15:01:18;25.90;80.20
57664;DHT22;43493;53.098;6.064;2023-06-10T15:03:44;25.80;80.80
57664;DHT22;43493;53.098;6.064;2023-06-10T15:06:10;25.80;81.20
57664;DHT22;43493;53.098;6.064;2023-06-10T15:08:35;25.90;63.40
57664;DHT22;43493;53.098;6.064;2023-06-10T15:11:01;25.90;61.20
57664;DHT22;43493;53.098;6.064;2023-06-10T15:13:28;25.90;56.60
57664;DHT22;43493;53.098;6.064;2023-06-10T15:15:53;25.90;55.40
57664;DHT22;43493;53.098;6.064;2023-06-10T15:18:19;26.00;52.60
57664;DHT22;43493;53.098;6.064;2023-06-10T15:20:45;25.90;50.60
57664;DHT22;43493;53.098;6.064;2023-06-10T15:23:11;26.00;48.70
57664;DHT22;43493;53.098;6.064;2023-06-10T15:25:36;26.10;46.90
57664;DHT22;43493;53.098;6.064;2023-06-10T15:28:02;26.10;47.00
57664;DHT22;43493;53.098;6.064;2023-06-10T15:30:29;26.10;46.40
57664;DHT22;43493;53.098;6.064;2023-06-10T15:32:54;26.20;46.40
57664;DHT22;43493;53.098;6.064;2023-06-10T15:35:20;26.10;44.90
57664;DHT22;43493;53.098;6.064;2023-06-10T15:37:46;26.20;45.00
57664;DHT22;43493;53.098;6.064;2023-06-10T15:40:11;26.20;45.20